EWG278 LSZH-EDDH
Flight info
| Callsign | EWG278 |
|---|---|
| Flight time | 1h 10m |
| Altitude | 22000 |
| Route | DEGES Z1 ETAGO Z3 LBU/N0405F320 N851 RIMKI/N0356F240 N851 OSBIT P605 NOLGO NOLGO6A |
| Aircraft | A20N/M-SDE2E3FGHIRWXY/LB1 |
Departure
| Time | 2026-05-05 19:37 |
|---|---|
| Airport | Zürich Airport (LSZH) |
Arrival
| Time | 2026-05-05 20:48 |
|---|---|
| Airport | Hamburg Helmut Schmidt Airport (EDDH) |
| Time | Latitude | Longitude | Altitude | Speed | Heading |
|---|---|---|---|---|---|
| 2026-05-05 19:04 | 47.46032 | 8.55833 | 1397 ft | 0 kts | 6° |
| 2026-05-05 19:27 | 47.46026 | 8.55832 | 1397 ft | 4 kts | 6° |
| 2026-05-05 19:27 | 47.45999 | 8.55828 | 1412 ft | 4 kts | 6° |
| 2026-05-05 19:27 | 47.45977 | 8.55824 | 1403 ft | 4 kts | 16° |
| 2026-05-05 19:27 | 47.45954 | 8.55807 | 1408 ft | 4 kts | 54° |
| 2026-05-05 19:28 | 47.45946 | 8.55772 | 1401 ft | 3 kts | 95° |
| 2026-05-05 19:28 | 47.45948 | 8.55743 | 1399 ft | 0 kts | 96° |
| 2026-05-05 19:31 | 47.45948 | 8.55746 | 1399 ft | 1 kts | 96° |
| 2026-05-05 19:31 | 47.45944 | 8.55793 | 1406 ft | 8 kts | 96° |
| 2026-05-05 19:31 | 47.45935 | 8.55908 | 1408 ft | 14 kts | 97° |
| 2026-05-05 19:32 | 47.45929 | 8.56013 | 1406 ft | 10 kts | 98° |
| 2026-05-05 19:32 | 47.45923 | 8.56121 | 1402 ft | 11 kts | 99° |
| 2026-05-05 19:32 | 47.45916 | 8.56189 | 1402 ft | 6 kts | 97° |
| 2026-05-05 19:32 | 47.45915 | 8.56205 | 1402 ft | 0 kts | 96° |
| 2026-05-05 19:35 | 47.45927 | 8.56301 | 1410 ft | 10 kts | 36° |
| 2026-05-05 19:35 | 47.45999 | 8.56323 | 1407 ft | 6 kts | 6° |
| 2026-05-05 19:35 | 47.46049 | 8.56330 | 1403 ft | 9 kts | 6° |
| 2026-05-05 19:35 | 47.46110 | 8.56393 | 1399 ft | 13 kts | 39° |
| 2026-05-05 19:36 | 47.46167 | 8.56405 | 1404 ft | 7 kts | 305° |
| 2026-05-05 19:36 | 47.46179 | 8.56383 | 1404 ft | 0 kts | 315° |
| 2026-05-05 19:36 | 47.46180 | 8.56381 | 1402 ft | 3 kts | 315° |
| 2026-05-05 19:36 | 47.46396 | 8.56075 | 1402 ft | 86 kts | 316° |
| 2026-05-05 19:37 | 47.47007 | 8.55219 | 1403 ft | 154 kts | 315° |
| 2026-05-05 19:37 | 47.47836 | 8.54036 | 1819 ft | 178 kts | 315° |
| 2026-05-05 19:37 | 47.48825 | 8.52675 | 2369 ft | 200 kts | 317° |
| 2026-05-05 19:37 | 47.49827 | 8.51398 | 3622 ft | 180 kts | 319° |
| 2026-05-05 19:38 | 47.50858 | 8.50489 | 4730 ft | 167 kts | 327° |
| 2026-05-05 19:38 | 47.51892 | 8.49757 | 5530 ft | 169 kts | 325° |
| 2026-05-05 19:38 | 47.52929 | 8.48712 | 6030 ft | 193 kts | 312° |
| 2026-05-05 19:38 | 47.53761 | 8.47087 | 6704 ft | 210 kts | 285° |
| 2026-05-05 19:39 | 47.53831 | 8.44922 | 7601 ft | 212 kts | 256° |
| 2026-05-05 19:39 | 47.53351 | 8.42795 | 8377 ft | 235 kts | 245° |
| 2026-05-05 19:39 | 47.52574 | 8.40432 | 8739 ft | 271 kts | 242° |
| 2026-05-05 19:39 | 47.51668 | 8.37878 | 8875 ft | 275 kts | 242° |
| 2026-05-05 19:40 | 47.50830 | 8.35468 | 8909 ft | 259 kts | 242° |
| 2026-05-05 19:40 | 47.49766 | 8.33410 | 8908 ft | 241 kts | 218° |
| 2026-05-05 19:40 | 47.48294 | 8.32484 | 8896 ft | 234 kts | 192° |
| 2026-05-05 19:40 | 47.46645 | 8.32659 | 8840 ft | 247 kts | 166° |
| 2026-05-05 19:41 | 47.45119 | 8.33994 | 8932 ft | 273 kts | 139° |
| 2026-05-05 19:41 | 47.44188 | 8.36056 | 9334 ft | 297 kts | 115° |
| 2026-05-05 19:41 | 47.43761 | 8.38139 | 9661 ft | 302 kts | 104° |
| 2026-05-05 19:41 | 47.43773 | 8.41239 | 9858 ft | 308 kts | 78° |
| 2026-05-05 19:42 | 47.44413 | 8.44270 | 9907 ft | 310 kts | 73° |
| 2026-05-05 19:42 | 47.45093 | 8.47294 | 9910 ft | 310 kts | 73° |
| 2026-05-05 19:42 | 47.45803 | 8.50463 | 9914 ft | 342 kts | 73° |
| 2026-05-05 19:42 | 47.46462 | 8.53896 | 9924 ft | 345 kts | 85° |
| 2026-05-05 19:43 | 47.46467 | 8.57368 | 9962 ft | 339 kts | 98° |
| 2026-05-05 19:43 | 47.46135 | 8.60806 | 10074 ft | 347 kts | 102° |
| 2026-05-05 19:43 | 47.45734 | 8.64416 | 10842 ft | 351 kts | 101° |
| 2026-05-05 19:43 | 47.45376 | 8.68001 | 11454 ft | 356 kts | 100° |
| 2026-05-05 19:44 | 47.45056 | 8.71632 | 11737 ft | 358 kts | 99° |
| 2026-05-05 19:44 | 47.44853 | 8.74129 | 11832 ft | 359 kts | 99° |
| 2026-05-05 19:44 | 47.44572 | 8.77738 | 11884 ft | 359 kts | 98° |
| 2026-05-05 19:44 | 47.44294 | 8.81389 | 11882 ft | 358 kts | 98° |
| 2026-05-05 19:45 | 47.44012 | 8.85081 | 11978 ft | 361 kts | 98° |
| 2026-05-05 19:45 | 47.43726 | 8.88780 | 12656 ft | 365 kts | 98° |
| 2026-05-05 19:45 | 47.43435 | 8.92526 | 13583 ft | 369 kts | 98° |
| 2026-05-05 19:45 | 47.43139 | 8.96326 | 14328 ft | 374 kts | 98° |
| 2026-05-05 19:46 | 47.42842 | 9.00136 | 15175 ft | 376 kts | 98° |
| 2026-05-05 19:46 | 47.42537 | 9.04025 | 15621 ft | 379 kts | 98° |
| 2026-05-05 19:46 | 47.42230 | 9.07899 | 15818 ft | 380 kts | 98° |
| 2026-05-05 19:46 | 47.41922 | 9.11792 | 15898 ft | 380 kts | 98° |
| 2026-05-05 19:47 | 47.41620 | 9.15618 | 15896 ft | 380 kts | 97° |
| 2026-05-05 19:47 | 47.41692 | 9.19513 | 15897 ft | 382 kts | 81° |
| 2026-05-05 19:47 | 47.42458 | 9.23239 | 15900 ft | 383 kts | 65° |
| 2026-05-05 19:47 | 47.43776 | 9.26693 | 16084 ft | 388 kts | 59° |
| 2026-05-05 19:48 | 47.45137 | 9.30159 | 16902 ft | 389 kts | 60° |
| 2026-05-05 19:48 | 47.46463 | 9.33587 | 17687 ft | 392 kts | 61° |
| 2026-05-05 19:48 | 47.47860 | 9.37066 | 18376 ft | 398 kts | 54° |
| 2026-05-05 19:48 | 47.49793 | 9.40030 | 19006 ft | 402 kts | 36° |
| 2026-05-05 19:49 | 47.52231 | 9.42035 | 19600 ft | 405 kts | 19° |
| 2026-05-05 19:49 | 47.54926 | 9.43374 | 20227 ft | 409 kts | 16° |
| 2026-05-05 19:49 | 47.57655 | 9.44559 | 20818 ft | 413 kts | 11° |
| 2026-05-05 19:49 | 47.60606 | 9.45231 | 21452 ft | 415 kts | 2° |
| 2026-05-05 19:50 | 47.63492 | 9.45389 | 21784 ft | 418 kts | 359° |
| 2026-05-05 19:50 | 47.66456 | 9.45520 | 21877 ft | 419 kts | 360° |
| 2026-05-05 19:50 | 47.69353 | 9.45673 | 21882 ft | 418 kts | 0° |
| 2026-05-05 19:50 | 47.72271 | 9.45836 | 21884 ft | 418 kts | 0° |
| 2026-05-05 19:51 | 47.75241 | 9.46001 | 22038 ft | 422 kts | 0° |
| 2026-05-05 19:51 | 47.78175 | 9.46161 | 22746 ft | 423 kts | 0° |
| 2026-05-05 19:51 | 47.81116 | 9.46314 | 23384 ft | 427 kts | 360° |
| 2026-05-05 19:51 | 47.84096 | 9.46351 | 23906 ft | 430 kts | 358° |
| 2026-05-05 19:52 | 47.87098 | 9.46317 | 24446 ft | 433 kts | 358° |
| 2026-05-05 19:52 | 47.90120 | 9.46276 | 24954 ft | 436 kts | 358° |
| 2026-05-05 19:52 | 47.93171 | 9.46247 | 25454 ft | 439 kts | 358° |
| 2026-05-05 19:52 | 47.96248 | 9.46230 | 25942 ft | 443 kts | 358° |
| 2026-05-05 19:53 | 47.99326 | 9.46222 | 26415 ft | 446 kts | 358° |
| 2026-05-05 19:53 | 48.02408 | 9.46218 | 26886 ft | 449 kts | 358° |
| 2026-05-05 19:53 | 48.05551 | 9.46214 | 27343 ft | 452 kts | 358° |
| 2026-05-05 19:53 | 48.08705 | 9.46208 | 27790 ft | 455 kts | 358° |
| 2026-05-05 19:54 | 48.11829 | 9.46201 | 28213 ft | 458 kts | 358° |
| 2026-05-05 19:54 | 48.15197 | 9.46193 | 28649 ft | 461 kts | 358° |
| 2026-05-05 19:54 | 48.18500 | 9.46187 | 29063 ft | 464 kts | 358° |
| 2026-05-05 19:54 | 48.21724 | 9.46188 | 29455 ft | 466 kts | 358° |
| 2026-05-05 19:55 | 48.24977 | 9.46193 | 29843 ft | 469 kts | 358° |
| 2026-05-05 19:55 | 48.28185 | 9.46197 | 30166 ft | 472 kts | 358° |
| 2026-05-05 19:55 | 48.31512 | 9.46200 | 30491 ft | 475 kts | 358° |
| 2026-05-05 19:55 | 48.34838 | 9.46203 | 30811 ft | 478 kts | 358° |
| 2026-05-05 19:56 | 48.38182 | 9.46205 | 31181 ft | 479 kts | 358° |
| 2026-05-05 19:56 | 48.41515 | 9.46208 | 31609 ft | 479 kts | 358° |
| 2026-05-05 19:56 | 48.44718 | 9.46211 | 32035 ft | 479 kts | 358° |
| 2026-05-05 19:56 | 48.48217 | 9.46215 | 32460 ft | 479 kts | 358° |
| 2026-05-05 19:57 | 48.51521 | 9.46218 | 32893 ft | 478 kts | 358° |
| 2026-05-05 19:57 | 48.53703 | 9.46220 | 33170 ft | 478 kts | 358° |
| 2026-05-05 19:57 | 48.58139 | 9.46185 | 33705 ft | 477 kts | 358° |
| 2026-05-05 19:57 | 48.61461 | 9.46139 | 33836 ft | 476 kts | 358° |
| 2026-05-05 19:58 | 48.63651 | 9.46109 | 33849 ft | 475 kts | 358° |
| 2026-05-05 19:58 | 48.70135 | 9.45819 | 33852 ft | 473 kts | 351° |
| 2026-05-05 19:59 | 48.76439 | 9.43544 | 33851 ft | 470 kts | 337° |
| 2026-05-05 19:59 | 48.82460 | 9.39692 | 33851 ft | 469 kts | 335° |
| 2026-05-05 20:00 | 48.88571 | 9.35923 | 33844 ft | 470 kts | 341° |
| 2026-05-05 20:00 | 48.94939 | 9.33829 | 33831 ft | 472 kts | 353° |
| 2026-05-05 20:01 | 49.01478 | 9.33262 | 33827 ft | 472 kts | 356° |
| 2026-05-05 20:01 | 49.08125 | 9.32690 | 33827 ft | 473 kts | 356° |
| 2026-05-05 20:02 | 49.14680 | 9.32149 | 33829 ft | 473 kts | 357° |
| 2026-05-05 20:02 | 49.21302 | 9.31615 | 33830 ft | 473 kts | 357° |
| 2026-05-05 20:03 | 49.27870 | 9.31102 | 33832 ft | 473 kts | 358° |
| 2026-05-05 20:03 | 49.34394 | 9.30629 | 33831 ft | 473 kts | 0° |
| 2026-05-05 20:04 | 49.40989 | 9.31378 | 33831 ft | 471 kts | 7° |
| 2026-05-05 20:04 | 49.47521 | 9.32326 | 33830 ft | 471 kts | 6° |
| 2026-05-05 20:05 | 49.54039 | 9.33274 | 33823 ft | 470 kts | 7° |
| 2026-05-05 20:05 | 49.60515 | 9.34232 | 33825 ft | 470 kts | 7° |
| 2026-05-05 20:06 | 49.67047 | 9.35204 | 33821 ft | 470 kts | 7° |
| 2026-05-05 20:06 | 49.73505 | 9.36909 | 33813 ft | 465 kts | 22° |
| 2026-05-05 20:07 | 49.78991 | 9.41686 | 33811 ft | 456 kts | 43° |
| 2026-05-05 20:07 | 49.83805 | 9.47968 | 33815 ft | 456 kts | 43° |
| 2026-05-05 20:08 | 49.88633 | 9.54223 | 33815 ft | 456 kts | 43° |
| 2026-05-05 20:08 | 49.93500 | 9.60564 | 33816 ft | 456 kts | 43° |
| 2026-05-05 20:09 | 49.98416 | 9.66996 | 33809 ft | 456 kts | 43° |
| 2026-05-05 20:09 | 50.03210 | 9.73186 | 33801 ft | 459 kts | 38° |
| 2026-05-05 20:09 | 50.06005 | 9.75667 | 33798 ft | 464 kts | 26° |
| 2026-05-05 20:10 | 50.09084 | 9.77205 | 33795 ft | 468 kts | 13° |
| 2026-05-05 20:10 | 50.12356 | 9.77735 | 33790 ft | 472 kts | 1° |
| 2026-05-05 20:10 | 50.15645 | 9.77427 | 33800 ft | 474 kts | 357° |
| 2026-05-05 20:11 | 50.22263 | 9.76756 | 33807 ft | 476 kts | 358° |
| 2026-05-05 20:11 | 50.28905 | 9.76102 | 33808 ft | 477 kts | 358° |
| 2026-05-05 20:12 | 50.35431 | 9.75448 | 33807 ft | 477 kts | 358° |
| 2026-05-05 20:12 | 50.41000 | 9.74885 | 33810 ft | 477 kts | 358° |
| 2026-05-05 20:13 | 50.47543 | 9.74221 | 33808 ft | 478 kts | 358° |
| 2026-05-05 20:13 | 50.54142 | 9.73551 | 33816 ft | 478 kts | 358° |
| 2026-05-05 20:14 | 50.60757 | 9.72876 | 33815 ft | 479 kts | 358° |
| 2026-05-05 20:14 | 50.67540 | 9.72182 | 33799 ft | 477 kts | 358° |
| 2026-05-05 20:15 | 50.74275 | 9.71484 | 33797 ft | 477 kts | 358° |
| 2026-05-05 20:15 | 50.80918 | 9.70792 | 33794 ft | 478 kts | 358° |
| 2026-05-05 20:16 | 50.87492 | 9.70106 | 33796 ft | 478 kts | 358° |
| 2026-05-05 20:16 | 50.94044 | 9.69798 | 33796 ft | 477 kts | 1° |
| 2026-05-05 20:17 | 51.00616 | 9.69688 | 33792 ft | 478 kts | 1° |
| 2026-05-05 20:17 | 51.07282 | 9.69512 | 33796 ft | 479 kts | 0° |
| 2026-05-05 20:18 | 51.13719 | 9.69316 | 33790 ft | 480 kts | 0° |
| 2026-05-05 20:18 | 51.20491 | 9.69186 | 33791 ft | 479 kts | 4° |
| 2026-05-05 20:19 | 51.27093 | 9.70214 | 33797 ft | 479 kts | 7° |
| 2026-05-05 20:19 | 51.33866 | 9.71292 | 33804 ft | 481 kts | 7° |
| 2026-05-05 20:20 | 51.40526 | 9.72364 | 33805 ft | 482 kts | 7° |
| 2026-05-05 20:20 | 51.46094 | 9.73270 | 33805 ft | 484 kts | 7° |
| 2026-05-05 20:21 | 51.54025 | 9.74696 | 33807 ft | 485 kts | 8° |
| 2026-05-05 20:21 | 51.59532 | 9.75766 | 33814 ft | 486 kts | 8° |
| 2026-05-05 20:22 | 51.66412 | 9.77084 | 33817 ft | 488 kts | 7° |
| 2026-05-05 20:22 | 51.73139 | 9.78363 | 33822 ft | 489 kts | 7° |
| 2026-05-05 20:23 | 51.79934 | 9.79658 | 33834 ft | 489 kts | 7° |
| 2026-05-05 20:23 | 51.86657 | 9.80943 | 33819 ft | 487 kts | 7° |
| 2026-05-05 20:24 | 51.93486 | 9.82261 | 33823 ft | 488 kts | 7° |
| 2026-05-05 20:24 | 52.00092 | 9.83545 | 33826 ft | 487 kts | 7° |
| 2026-05-05 20:25 | 52.06833 | 9.84859 | 33522 ft | 487 kts | 7° |
| 2026-05-05 20:25 | 52.10184 | 9.85513 | 33245 ft | 486 kts | 7° |
| 2026-05-05 20:25 | 52.13545 | 9.86170 | 32971 ft | 486 kts | 6° |
| 2026-05-05 20:25 | 52.16775 | 9.86802 | 32715 ft | 486 kts | 6° |
| 2026-05-05 20:26 | 52.20140 | 9.87462 | 32451 ft | 486 kts | 6° |
| 2026-05-05 20:26 | 52.23501 | 9.88124 | 32190 ft | 486 kts | 7° |
| 2026-05-05 20:26 | 52.26805 | 9.89178 | 31939 ft | 487 kts | 15° |
| 2026-05-05 20:26 | 52.30108 | 9.90661 | 31668 ft | 486 kts | 15° |
| 2026-05-05 20:27 | 52.33336 | 9.92079 | 31411 ft | 486 kts | 15° |
| 2026-05-05 20:27 | 52.36517 | 9.93470 | 30900 ft | 488 kts | 15° |
| 2026-05-05 20:27 | 52.39818 | 9.94916 | 30129 ft | 490 kts | 14° |
| 2026-05-05 20:27 | 52.43055 | 9.96340 | 29401 ft | 487 kts | 14° |
| 2026-05-05 20:28 | 52.46314 | 9.97779 | 28828 ft | 479 kts | 14° |
| 2026-05-05 20:28 | 52.49561 | 9.99216 | 28246 ft | 467 kts | 14° |
| 2026-05-05 20:28 | 52.52697 | 10.00606 | 27708 ft | 454 kts | 14° |
| 2026-05-05 20:28 | 52.55797 | 10.01978 | 27020 ft | 451 kts | 14° |
| 2026-05-05 20:29 | 52.58795 | 10.03309 | 26523 ft | 445 kts | 14° |
| 2026-05-05 20:29 | 52.61738 | 10.04621 | 26009 ft | 440 kts | 14° |
| 2026-05-05 20:29 | 52.64685 | 10.05939 | 25386 ft | 438 kts | 14° |
| 2026-05-05 20:29 | 52.67592 | 10.07241 | 24925 ft | 431 kts | 14° |
| 2026-05-05 20:30 | 52.70468 | 10.08531 | 24404 ft | 427 kts | 14° |
| 2026-05-05 20:30 | 52.73320 | 10.09811 | 23773 ft | 427 kts | 14° |
| 2026-05-05 20:30 | 52.76167 | 10.11047 | 23254 ft | 422 kts | 10° |
| 2026-05-05 20:30 | 52.78977 | 10.11737 | 22762 ft | 414 kts | 2° |
| 2026-05-05 20:31 | 52.80934 | 10.11875 | 22371 ft | 409 kts | 359° |
| 2026-05-05 20:31 | 52.83810 | 10.11949 | 21807 ft | 405 kts | 359° |
| 2026-05-05 20:31 | 52.86604 | 10.12048 | 21286 ft | 400 kts | 359° |
| 2026-05-05 20:31 | 52.89345 | 10.12149 | 20743 ft | 397 kts | 359° |
| 2026-05-05 20:32 | 52.92073 | 10.12246 | 20223 ft | 392 kts | 360° |
| 2026-05-05 20:32 | 52.94830 | 10.12338 | 19664 ft | 390 kts | 360° |
| 2026-05-05 20:32 | 52.97528 | 10.12426 | 19191 ft | 384 kts | 360° |
| 2026-05-05 20:32 | 53.00200 | 10.12511 | 18587 ft | 384 kts | 0° |
| 2026-05-05 20:33 | 53.02848 | 10.12597 | 18151 ft | 379 kts | 0° |
| 2026-05-05 20:33 | 53.05466 | 10.12684 | 17580 ft | 375 kts | 0° |
| 2026-05-05 20:33 | 53.08048 | 10.12771 | 17224 ft | 367 kts | 0° |
| 2026-05-05 20:33 | 53.10527 | 10.12855 | 17081 ft | 353 kts | 0° |
| 2026-05-05 20:34 | 53.12937 | 10.12936 | 16915 ft | 337 kts | 0° |
| 2026-05-05 20:34 | 53.15186 | 10.13013 | 16518 ft | 327 kts | 0° |
| 2026-05-05 20:34 | 53.17454 | 10.13088 | 15892 ft | 324 kts | 0° |
| 2026-05-05 20:34 | 53.19673 | 10.13150 | 15297 ft | 320 kts | 357° |
| 2026-05-05 20:35 | 53.21826 | 10.12393 | 14681 ft | 314 kts | 333° |
| 2026-05-05 20:35 | 53.23556 | 10.10338 | 14080 ft | 307 kts | 309° |
| 2026-05-05 20:35 | 53.24600 | 10.07417 | 13492 ft | 302 kts | 286° |
| 2026-05-05 20:35 | 53.25109 | 10.04119 | 13072 ft | 300 kts | 282° |
| 2026-05-05 20:36 | 53.25620 | 10.00764 | 12690 ft | 297 kts | 283° |
| 2026-05-05 20:36 | 53.26163 | 9.97482 | 12035 ft | 304 kts | 284° |
| 2026-05-05 20:36 | 53.26729 | 9.94284 | 11333 ft | 313 kts | 285° |
| 2026-05-05 20:36 | 53.27368 | 9.90802 | 10583 ft | 318 kts | 286° |
| 2026-05-05 20:37 | 53.28019 | 9.87321 | 9868 ft | 316 kts | 286° |
| 2026-05-05 20:37 | 53.28677 | 9.83812 | 9072 ft | 314 kts | 286° |
| 2026-05-05 20:37 | 53.29324 | 9.80347 | 8310 ft | 313 kts | 286° |
| 2026-05-05 20:37 | 53.29962 | 9.76904 | 7555 ft | 317 kts | 287° |
| 2026-05-05 20:38 | 53.30601 | 9.73445 | 6826 ft | 315 kts | 287° |
| 2026-05-05 20:38 | 53.31251 | 9.70157 | 6114 ft | 312 kts | 294° |
| 2026-05-05 20:38 | 53.32427 | 9.67165 | 5357 ft | 308 kts | 316° |
| 2026-05-05 20:38 | 53.34208 | 9.65231 | 4606 ft | 307 kts | 340° |
| 2026-05-05 20:39 | 53.36221 | 9.64124 | 3843 ft | 304 kts | 344° |
| 2026-05-05 20:39 | 53.38216 | 9.63039 | 3258 ft | 296 kts | 344° |
| 2026-05-05 20:39 | 53.40175 | 9.62390 | 3025 ft | 269 kts | 8° |
| 2026-05-05 20:39 | 53.41938 | 9.63049 | 2983 ft | 243 kts | 10° |
| 2026-05-05 20:40 | 53.43479 | 9.63633 | 2993 ft | 213 kts | 33° |
| 2026-05-05 20:40 | 53.44655 | 9.65161 | 2994 ft | 213 kts | 43° |
| 2026-05-05 20:40 | 53.45685 | 9.66724 | 2992 ft | 192 kts | 44° |
| 2026-05-05 20:40 | 53.46627 | 9.68181 | 3033 ft | 165 kts | 45° |
| 2026-05-05 20:41 | 53.47395 | 9.69370 | 2991 ft | 138 kts | 45° |
| 2026-05-05 20:41 | 53.48072 | 9.70322 | 3000 ft | 125 kts | 37° |
| 2026-05-05 20:41 | 53.48823 | 9.71099 | 2999 ft | 125 kts | 35° |
| 2026-05-05 20:41 | 53.49537 | 9.71913 | 3004 ft | 123 kts | 46° |
| 2026-05-05 20:42 | 53.50129 | 9.72956 | 3000 ft | 123 kts | 50° |
| 2026-05-05 20:42 | 53.50684 | 9.74009 | 3001 ft | 123 kts | 51° |
| 2026-05-05 20:42 | 53.51245 | 9.75087 | 2999 ft | 122 kts | 51° |
| 2026-05-05 20:42 | 53.51804 | 9.76170 | 3003 ft | 123 kts | 52° |
| 2026-05-05 20:43 | 53.52363 | 9.77260 | 2995 ft | 123 kts | 52° |
| 2026-05-05 20:43 | 53.52920 | 9.78356 | 2883 ft | 123 kts | 52° |
| 2026-05-05 20:43 | 53.53470 | 9.79442 | 2728 ft | 122 kts | 52° |
| 2026-05-05 20:43 | 53.54023 | 9.80486 | 2574 ft | 121 kts | 51° |
| 2026-05-05 20:44 | 53.54549 | 9.81545 | 2416 ft | 119 kts | 52° |
| 2026-05-05 20:44 | 53.55063 | 9.82589 | 2260 ft | 120 kts | 52° |
| 2026-05-05 20:44 | 53.55589 | 9.83662 | 2090 ft | 119 kts | 52° |
| 2026-05-05 20:44 | 53.56113 | 9.84738 | 1912 ft | 117 kts | 52° |
| 2026-05-05 20:45 | 53.57150 | 9.86894 | 1590 ft | 118 kts | 51° |
| 2026-05-05 20:45 | 53.57665 | 9.87962 | 1450 ft | 118 kts | 51° |
| 2026-05-05 20:45 | 53.58199 | 9.89028 | 1315 ft | 120 kts | 50° |
| 2026-05-05 20:46 | 53.58740 | 9.90113 | 1108 ft | 119 kts | 52° |
| 2026-05-05 20:46 | 53.59254 | 9.91194 | 921 ft | 120 kts | 51° |
| 2026-05-05 20:46 | 53.59799 | 9.92296 | 760 ft | 123 kts | 50° |
| 2026-05-05 20:46 | 53.60352 | 9.93375 | 611 ft | 123 kts | 49° |
| 2026-05-05 20:47 | 53.60901 | 9.94520 | 434 ft | 125 kts | 50° |
| 2026-05-05 20:47 | 53.61442 | 9.95605 | 239 ft | 121 kts | 50° |
| 2026-05-05 20:47 | 53.61954 | 9.96643 | 100 ft | 110 kts | 50° |
| 2026-05-05 20:47 | 53.62417 | 9.97561 | 40 ft | 93 kts | 50° |
| 2026-05-05 20:48 | 53.62712 | 9.98155 | 42 ft | 51 kts | 50° |
| 2026-05-05 20:48 | 53.62925 | 9.98589 | 44 ft | 45 kts | 50° |
| 2026-05-05 20:48 | 53.63120 | 9.98966 | 46 ft | 42 kts | 46° |
| 2026-05-05 20:48 | 53.63260 | 9.99277 | 46 ft | 16 kts | 53° |
| 2026-05-05 20:49 | 53.63293 | 9.99471 | 46 ft | 19 kts | 89° |
| 2026-05-05 20:49 | 53.63283 | 9.99608 | 48 ft | 7 kts | 100° |
| 2026-05-05 20:49 | 53.63281 | 9.99623 | 48 ft | 0 kts | 100° |
| 2026-05-05 20:50 | 53.63279 | 9.99642 | 48 ft | 4 kts | 100° |
| 2026-05-05 20:50 | 53.63261 | 9.99726 | 46 ft | 10 kts | 135° |
| 2026-05-05 20:51 | 53.63186 | 9.99795 | 48 ft | 15 kts | 152° |
| 2026-05-05 20:51 | 53.63086 | 9.99883 | 48 ft | 18 kts | 154° |
| 2026-05-05 20:51 | 53.63005 | 9.99950 | 48 ft | 6 kts | 153° |
| 2026-05-05 20:51 | 53.62992 | 9.99961 | 46 ft | 0 kts | 153° |
| 2026-05-05 20:53 | 53.62989 | 9.99964 | 48 ft | 2 kts | 153° |
| 2026-05-05 20:53 | 53.62956 | 10.00002 | 48 ft | 9 kts | 128° |
| 2026-05-05 20:53 | 53.62978 | 10.00087 | 48 ft | 10 kts | 28° |
| 2026-05-05 20:53 | 53.63010 | 10.00123 | 48 ft | 0 kts | 40° |
| 2026-05-05 20:54 | 53.63014 | 10.00132 | 46 ft | 2 kts | 56° |
| 2026-05-05 20:54 | 53.63011 | 10.00166 | 48 ft | 3 kts | 127° |
| 2026-05-05 20:54 | 53.62991 | 10.00214 | 48 ft | 7 kts | 122° |
| 2026-05-05 20:54 | 53.62978 | 10.00250 | 48 ft | 5 kts | 122° |
| 2026-05-05 20:55 | 53.62968 | 10.00275 | 48 ft | 2 kts | 124° |
| 2026-05-05 20:55 | 53.62967 | 10.00276 | 48 ft | 0 kts | 124° |
| 2026-05-05 20:56 | 53.62940 | 10.00294 | 48 ft | 0 kts | 122° |